Time;durP1;ratioP1;P1;durP2;ratioP2;P2;SDS_P1;SDS_P2;PMS_P1;PMS_P2;Temp;Humidity;BMP_temperature;BMP_pressure;BME280_temperature;BME280_humidity;BME280_pressure;Samples;Min_cycle;Max_cycle;Signal;HPM_P1;HPM_P2
2021/01/13 00:00:30;;;;;;;;;;;17.70;57.80;;;;;;5051164;28;19931;-56
2021/01/13 00:02:56;;;;;;;;;;;17.60;57.80;;;;;;5046171;28;19929;-56
2021/01/13 00:05:43;;;;;;;;;;;17.60;57.80;;;;;;5051180;28;20352;-56
2021/01/13 00:08:10;;;;;;;;;;;17.60;57.80;;;;;;5043810;28;20488;-56
2021/01/13 00:10:36;;;;;;;;;;;17.60;57.80;;;;;;5050965;28;20014;-56
2021/01/13 00:13:03;;;;;;;;;;;17.60;57.80;;;;;;5041527;28;19925;-56
2021/01/13 00:15:29;;;;;;;;;;;17.60;57.90;;;;;;5050919;28;19931;-55
2021/01/13 00:17:55;;;;;;;;;;;17.60;57.90;;;;;;5050514;28;19935;-55
2021/01/13 00:20:21;;;;;;;;;;;17.50;57.80;;;;;;5045517;28;20030;-57
2021/01/13 00:22:48;;;;;;;;;;;17.50;57.90;;;;;;5051784;28;19964;-54
2021/01/13 00:25:15;;;;;;;;;;;17.50;57.90;;;;;;5045527;28;19971;-56
2021/01/13 00:27:43;;;;;;;;;;;17.50;57.90;;;;;;5049501;28;19932;-55
2021/01/13 00:30:09;;;;;;;;;;;17.50;57.90;;;;;;5045479;28;19964;-56
2021/01/13 00:32:35;;;;;;;;;;;17.50;57.90;;;;;;5049492;28;20770;-55
2021/01/13 00:35:02;;;;;;;;;;;17.50;58.00;;;;;;5045240;28;20365;-55
2021/01/13 00:37:28;;;;;;;;;;;17.40;57.90;;;;;;5050547;28;19925;-56
2021/01/13 00:39:55;;;;;;;;;;;17.40;57.90;;;;;;5044118;28;19924;-55
2021/01/13 00:42:21;;;;;;;;;;;17.40;58.00;;;;;;5052978;28;19933;-57
2021/01/13 00:44:47;;;;;;;;;;;17.40;57.90;;;;;;5044471;28;19925;-55
2021/01/13 00:47:16;;;;;;;;;;;17.40;57.90;;;;;;5051390;28;19964;-56
2021/01/13 00:49:43;;;;;;;;;;;17.40;58.00;;;;;;5045940;28;19928;-56
2021/01/13 00:52:10;;;;;;;;;;;17.40;58.00;;;;;;5049937;28;19924;-55
2021/01/13 00:55:12;;;;;;;;;;;17.30;58.00;;;;;;5046323;28;19933;-56
2021/01/13 00:57:38;;;;;;;;;;;17.30;57.90;;;;;;5051430;28;19925;-55
2021/01/13 01:00:05;;;;;;;;;;;17.30;57.90;;;;;;5046423;28;19933;-55
2021/01/13 01:02:32;;;;;;;;;;;17.30;58.00;;;;;;5050585;28;19968;-57
2021/01/13 01:04:58;;;;;;;;;;;17.30;57.90;;;;;;5046791;28;20296;-55
2021/01/13 01:07:24;;;;;;;;;;;17.30;58.00;;;;;;5047529;28;19933;-55
2021/01/13 01:09:51;;;;;;;;;;;17.20;58.00;;;;;;5051538;28;19924;-55
2021/01/13 01:12:17;;;;;;;;;;;17.20;57.90;;;;;;5042781;28;19928;-55
2021/01/13 01:14:43;;;;;;;;;;;17.30;58.10;;;;;;5049278;28;19994;-55
2021/01/13 01:17:10;;;;;;;;;;;17.20;58.10;;;;;;5045615;28;20609;-55
2021/01/13 01:19:37;;;;;;;;;;;17.20;58.10;;;;;;5049537;28;20320;-56
2021/01/13 01:22:04;;;;;;;;;;;17.20;58.10;;;;;;5044712;28;19924;-55
2021/01/13 01:24:30;;;;;;;;;;;17.10;58.10;;;;;;5049386;28;19968;-56
2021/01/13 01:26:56;;;;;;;;;;;17.20;58.00;;;;;;5044517;28;19928;-57
2021/01/13 01:29:23;;;;;;;;;;;17.10;58.10;;;;;;5052448;28;19932;-55
2021/01/13 01:31:50;;;;;;;;;;;17.10;58.10;;;;;;5044815;28;19932;-55
2021/01/13 01:34:21;;;;;;;;;;;17.10;58.10;;;;;;5050549;28;19936;-55
2021/01/13 01:36:48;;;;;;;;;;;17.10;58.10;;;;;;5044958;28;19928;-55
2021/01/13 01:39:14;;;;;;;;;;;17.10;58.10;;;;;;5049706;28;19925;-55
2021/01/13 01:41:43;;;;;;;;;;;17.10;58.10;;;;;;5041415;28;20385;-57
2021/01/13 01:44:14;;;;;;;;;;;17.10;58.10;;;;;;5051684;28;19979;-55
2021/01/13 01:46:43;;;;;;;;;;;17.10;58.10;;;;;;5043218;28;19925;-55
2021/01/13 01:49:11;;;;;;;;;;;17.10;58.10;;;;;;5045319;28;20472;-56
2021/01/13 01:51:56;;;;;;;;;;;17.00;57.90;;;;;;5049005;28;19928;-55
2021/01/13 01:54:25;;;;;;;;;;;17.00;57.90;;;;;;5047313;28;19925;-56
2021/01/13 01:56:52;;;;;;;;;;;17.00;58.00;;;;;;5050040;28;19931;-55
2021/01/13 01:59:25;;;;;;;;;;;17.00;58.00;;;;;;5040143;28;20309;-56
2021/01/13 02:01:54;;;;;;;;;;;17.00;58.00;;;;;;5053770;28;19925;-55
2021/01/13 02:04:32;;;;;;;;;;;17.00;58.00;;;;;;5044525;28;19960;-55
2021/01/13 02:06:58;;;;;;;;;;;17.00;58.00;;;;;;5047742;28;19944;-56
2021/01/13 02:09:28;;;;;;;;;;;17.00;58.00;;;;;;5042300;28;20016;-57
2021/01/13 02:11:55;;;;;;;;;;;17.00;58.00;;;;;;5048584;28;20385;-56
2021/01/13 02:14:36;;;;;;;;;;;16.90;58.00;;;;;;5041459;28;19947;-55
2021/01/13 02:17:03;;;;;;;;;;;16.90;58.00;;;;;;5048553;28;19925;-55
2021/01/13 02:19:45;;;;;;;;;;;16.90;58.10;;;;;;5038373;28;19924;-57
2021/01/13 02:22:12;;;;;;;;;;;16.90;58.00;;;;;;5048357;28;20280;-57
2021/01/13 02:24:57;;;;;;;;;;;16.90;58.00;;;;;;5038840;28;19932;-57
2021/01/13 02:27:41;;;;;;;;;;;17.00;58.00;;;;;;5048112;28;20558;-57
2021/01/13 02:30:08;;;;;;;;;;;16.90;58.10;;;;;;5039324;28;19940;-55
2021/01/13 02:32:38;;;;;;;;;;;16.90;58.00;;;;;;5044861;28;19929;-55
2021/01/13 02:35:08;;;;;;;;;;;16.90;58.00;;;;;;5043285;28;19925;-56
2021/01/13 02:37:36;;;;;;;;;;;16.90;58.00;;;;;;5049355;28;20292;-56
2021/01/13 02:40:04;;;;;;;;;;;16.90;58.10;;;;;;5040445;28;19925;-55
2021/01/13 02:42:33;;;;;;;;;;;16.90;58.10;;;;;;5049030;28;19968;-55
2021/01/13 02:45:04;;;;;;;;;;;16.80;58.00;;;;;;5040618;28;19931;-56
2021/01/13 02:47:50;;;;;;;;;;;16.80;58.10;;;;;;5047545;28;19925;-56
2021/01/13 02:50:24;;;;;;;;;;;16.80;58.00;;;;;;5040595;28;19936;-56
2021/01/13 02:53:02;;;;;;;;;;;16.80;58.00;;;;;;5046713;28;19970;-55
2021/01/13 02:55:41;;;;;;;;;;;16.80;58.00;;;;;;5039350;28;19925;-55
2021/01/13 02:58:10;;;;;;;;;;;16.80;58.10;;;;;;5046299;28;20029;-56
2021/01/13 03:00:36;;;;;;;;;;;16.80;58.10;;;;;;5038522;28;19936;-57
2021/01/13 03:03:03;;;;;;;;;;;16.80;58.10;;;;;;5048940;28;20355;-57
2021/01/13 03:05:30;;;;;;;;;;;16.80;58.00;;;;;;5042454;28;19924;-56
2021/01/13 03:07:56;;;;;;;;;;;16.80;58.00;;;;;;5045239;28;19925;-56
2021/01/13 03:10:25;;;;;;;;;;;16.70;57.90;;;;;;5037537;28;19931;-57
2021/01/13 03:12:57;;;;;;;;;;;16.70;58.00;;;;;;5049558;28;19925;-57
2021/01/13 03:15:25;;;;;;;;;;;16.70;57.90;;;;;;5044431;28;19965;-55
2021/01/13 03:18:02;;;;;;;;;;;16.80;57.90;;;;;;5048959;28;19925;-55
2021/01/13 03:20:41;;;;;;;;;;;16.70;57.80;;;;;;5046151;28;20357;-55
2021/01/13 03:23:19;;;;;;;;;;;16.70;57.90;;;;;;5050595;28;20539;-55
2021/01/13 03:25:57;;;;;;;;;;;16.70;58.00;;;;;;5043917;28;19943;-57
2021/01/13 03:28:25;;;;;;;;;;;16.70;57.90;;;;;;5046822;28;20302;-55
2021/01/13 03:30:53;;;;;;;;;;;16.70;57.90;;;;;;5048700;28;19925;-55
2021/01/13 03:33:25;;;;;;;;;;;16.70;57.80;;;;;;5041626;28;19960;-55
2021/01/13 03:36:02;;;;;;;;;;;16.70;57.80;;;;;;5044571;28;19926;-55
2021/01/13 03:38:29;;;;;;;;;;;16.60;57.80;;;;;;5042847;28;20520;-55
2021/01/13 03:40:58;;;;;;;;;;;16.70;57.80;;;;;;5049670;28;19925;-56
2021/01/13 03:43:24;;;;;;;;;;;16.70;57.80;;;;;;5040899;28;19938;-57
2021/01/13 03:45:53;;;;;;;;;;;16.70;57.80;;;;;;5049072;28;19929;-57
2021/01/13 03:48:34;;;;;;;;;;;16.60;57.80;;;;;;5044770;28;19925;-57
2021/01/13 03:51:01;;;;;;;;;;;16.60;57.80;;;;;;5046079;28;19986;-56
2021/01/13 03:53:29;;;;;;;;;;;16.70;57.80;;;;;;5025113;28;19931;-56
2021/01/13 03:55:57;;;;;;;;;;;16.70;57.80;;;;;;5047792;28;19931;-56
2021/01/13 03:58:42;;;;;;;;;;;16.60;57.80;;;;;;5044136;28;19951;-57
2021/01/13 04:01:23;;;;;;;;;;;16.60;57.80;;;;;;5051194;28;19939;-54
2021/01/13 04:04:09;;;;;;;;;;;16.60;57.80;;;;;;5043115;28;19926;-56
2021/01/13 04:06:41;;;;;;;;;;;16.60;57.80;;;;;;5050016;28;19960;-56
2021/01/13 04:09:09;;;;;;;;;;;16.60;57.80;;;;;;5041998;28;20298;-55
2021/01/13 04:11:35;;;;;;;;;;;16.60;57.80;;;;;;5051724;28;19924;-55
2021/01/13 04:14:09;;;;;;;;;;;16.60;57.80;;;;;;5043478;28;19932;-55
2021/01/13 04:16:36;;;;;;;;;;;16.60;57.80;;;;;;5050870;28;19967;-55
2021/01/13 04:19:03;;;;;;;;;;;16.60;57.70;;;;;;5043498;28;20613;-55
2021/01/13 04:21:29;;;;;;;;;;;16.60;57.80;;;;;;5047761;28;19924;-57
2021/01/13 04:23:56;;;;;;;;;;;16.60;57.80;;;;;;5040387;28;20266;-55
2021/01/13 04:26:23;;;;;;;;;;;16.60;57.90;;;;;;5044587;28;19925;-55
2021/01/13 04:28:49;;;;;;;;;;;16.60;57.80;;;;;;5045727;28;19925;-57
2021/01/13 04:31:15;;;;;;;;;;;16.50;57.80;;;;;;5044926;28;20026;-57
2021/01/13 04:33:43;;;;;;;;;;;16.60;57.80;;;;;;5042552;28;19930;-56
2021/01/13 04:36:09;;;;;;;;;;;16.60;57.80;;;;;;5047434;28;20276;-57
2021/01/13 04:38:35;;;;;;;;;;;16.50;57.70;;;;;;5050443;28;19932;-57
2021/01/13 04:41:13;;;;;;;;;;;16.50;57.80;;;;;;5040513;28;20612;-55
2021/01/13 04:43:42;;;;;;;;;;;16.60;57.80;;;;;;5050049;28;19929;-57
2021/01/13 04:46:20;;;;;;;;;;;16.60;57.80;;;;;;5043335;28;19932;-57
2021/01/13 04:48:54;;;;;;;;;;;16.50;57.70;;;;;;5050680;28;19932;-56
2021/01/13 04:51:23;;;;;;;;;;;16.50;57.80;;;;;;5041590;28;19925;-55
2021/01/13 04:53:51;;;;;;;;;;;16.50;57.70;;;;;;5046208;28;19925;-54
2021/01/13 04:56:18;;;;;;;;;;;16.50;57.80;;;;;;5042054;28;19971;-56
2021/01/13 04:58:57;;;;;;;;;;;16.50;57.80;;;;;;5043399;28;19947;-57
2021/01/13 05:01:41;;;;;;;;;;;16.50;57.80;;;;;;5041742;28;19933;-57
2021/01/13 05:04:22;;;;;;;;;;;16.50;57.70;;;;;;5050171;28;19956;-55
2021/01/13 05:06:59;;;;;;;;;;;16.50;57.70;;;;;;5039166;28;19933;-55
2021/01/13 05:09:31;;;;;;;;;;;16.50;57.80;;;;;;5049934;28;19924;-55
2021/01/13 05:12:04;;;;;;;;;;;16.50;57.70;;;;;;5041489;28;19925;-55
2021/01/13 05:14:51;;;;;;;;;;;16.50;57.80;;;;;;5046256;28;20400;-55
2021/01/13 05:17:31;;;;;;;;;;;16.50;57.80;;;;;;5045044;28;19928;-55
2021/01/13 05:20:07;;;;;;;;;;;16.50;57.70;;;;;;5050143;28;19994;-57
2021/01/13 05:22:34;;;;;;;;;;;16.50;57.70;;;;;;5039470;28;19929;-57
2021/01/13 05:25:07;;;;;;;;;;;16.50;57.80;;;;;;5049904;28;19925;-57
2021/01/13 05:27:47;;;;;;;;;;;16.50;57.70;;;;;;5041304;28;20274;-55
2021/01/13 05:30:14;;;;;;;;;;;16.50;57.80;;;;;;5050619;28;19925;-55
2021/01/13 05:32:41;;;;;;;;;;;16.40;57.70;;;;;;5041033;28;19939;-56
2021/01/13 05:35:10;;;;;;;;;;;16.50;57.70;;;;;;5049671;28;19925;-55
2021/01/13 05:37:37;;;;;;;;;;;16.50;57.70;;;;;;5039910;28;19933;-55
2021/01/13 05:40:03;;;;;;;;;;;16.50;57.70;;;;;;5049459;28;19924;-57
2021/01/13 05:42:29;;;;;;;;;;;16.40;57.70;;;;;;5040869;28;20293;-57
2021/01/13 05:44:57;;;;;;;;;;;16.40;57.70;;;;;;5045740;28;20410;-57
2021/01/13 05:47:47;;;;;;;;;;;16.40;57.70;;;;;;5042322;28;19931;-55
2021/01/13 05:50:16;;;;;;;;;;;16.40;57.70;;;;;;5049285;28;19958;-56
2021/01/13 05:52:46;;;;;;;;;;;16.40;57.70;;;;;;5039666;28;19924;-55
2021/01/13 05:55:18;;;;;;;;;;;16.40;57.70;;;;;;5047688;28;19933;-57
2021/01/13 05:57:55;;;;;;;;;;;16.40;57.70;;;;;;5040865;28;20332;-57
2021/01/13 06:00:22;;;;;;;;;;;16.40;57.70;;;;;;5049447;28;19956;-55
2021/01/13 06:02:55;;;;;;;;;;;16.40;57.70;;;;;;5040812;28;19925;-55
2021/01/13 06:05:22;;;;;;;;;;;16.40;57.60;;;;;;5045949;28;19925;-57
2021/01/13 06:07:51;;;;;;;;;;;16.40;57.60;;;;;;5042683;28;19939;-55
2021/01/13 06:10:18;;;;;;;;;;;16.40;57.50;;;;;;5049759;28;19939;-57
2021/01/13 06:12:48;;;;;;;;;;;16.40;57.50;;;;;;5043949;28;20268;-55
2021/01/13 06:15:21;;;;;;;;;;;16.40;57.50;;;;;;5046744;28;19931;-57
2021/01/13 06:17:50;;;;;;;;;;;16.40;57.50;;;;;;5046594;28;19932;-55
2021/01/13 06:20:18;;;;;;;;;;;16.40;57.50;;;;;;5040725;28;19925;-55
2021/01/13 06:22:46;;;;;;;;;;;16.40;57.50;;;;;;5045217;28;19926;-57
2021/01/13 06:25:12;;;;;;;;;;;16.40;57.50;;;;;;5039179;28;19925;-56
2021/01/13 06:27:48;;;;;;;;;;;16.40;57.40;;;;;;5046526;28;19978;-57
2021/01/13 06:30:18;;;;;;;;;;;16.40;57.60;;;;;;5043635;28;19925;-56
2021/01/13 06:33:08;;;;;;;;;;;16.40;57.70;;;;;;5048394;28;19939;-56
2021/01/13 06:35:35;;;;;;;;;;;16.40;58.00;;;;;;5043540;28;20377;-56
2021/01/13 06:38:01;;;;;;;;;;;16.40;57.70;;;;;;5051212;28;19924;-56
2021/01/13 06:40:29;;;;;;;;;;;16.40;57.70;;;;;;5041901;28;19929;-56
2021/01/13 06:42:55;;;;;;;;;;;16.40;57.70;;;;;;5052895;28;19931;-56
2021/01/13 06:45:31;;;;;;;;;;;16.40;57.70;;;;;;5041695;28;19931;-56
2021/01/13 06:47:57;;;;;;;;;;;16.40;57.60;;;;;;5048236;28;20369;-56
2021/01/13 06:50:36;;;;;;;;;;;16.40;57.60;;;;;;5039268;28;19931;-56
2021/01/13 06:53:06;;;;;;;;;;;16.40;57.50;;;;;;5051067;28;20002;-56
2021/01/13 06:55:38;;;;;;;;;;;16.40;57.50;;;;;;5039460;28;20055;-56
2021/01/13 06:58:15;;;;;;;;;;;16.40;57.50;;;;;;5049408;28;19958;-56
2021/01/13 07:00:43;;;;;;;;;;;16.40;57.40;;;;;;5041858;28;19967;-56
2021/01/13 07:03:19;;;;;;;;;;;16.40;57.40;;;;;;5043898;28;19983;-56
2021/01/13 07:05:48;;;;;;;;;;;16.30;57.30;;;;;;5040688;28;19933;-56
2021/01/13 07:08:14;;;;;;;;;;;16.40;57.40;;;;;;5045287;28;19968;-57
2021/01/13 07:10:41;;;;;;;;;;;16.40;58.00;;;;;;5041389;28;19925;-54
2021/01/13 07:13:08;;;;;;;;;;;16.30;57.30;;;;;;5047822;28;19939;-55
2021/01/13 07:15:44;;;;;;;;;;;16.40;57.30;;;;;;5040411;28;19925;-55
2021/01/13 07:18:12;;;;;;;;;;;16.30;57.20;;;;;;5044734;28;19968;-57
2021/01/13 07:20:39;;;;;;;;;;;16.30;57.20;;;;;;5042049;28;20316;-56
2021/01/13 07:23:06;;;;;;;;;;;16.30;57.20;;;;;;5048246;28;19933;-57
2021/01/13 07:25:32;;;;;;;;;;;16.30;57.20;;;;;;5045285;28;20336;-55
2021/01/13 07:28:04;;;;;;;;;;;16.30;57.20;;;;;;5040013;28;19925;-55
2021/01/13 07:30:31;;;;;;;;;;;16.30;57.10;;;;;;5054311;28;19929;-55
2021/01/13 07:32:59;;;;;;;;;;;16.30;57.20;;;;;;5048984;28;19925;-55
2021/01/13 07:35:53;;;;;;;;;;;16.30;57.20;;;;;;5050981;28;19960;-56
2021/01/13 07:38:20;;;;;;;;;;;16.30;57.20;;;;;;5045568;28;19925;-54
2021/01/13 07:40:55;;;;;;;;;;;16.30;57.20;;;;;;5052283;28;20354;-55
2021/01/13 07:43:42;;;;;;;;;;;16.30;57.10;;;;;;5044908;28;19940;-55
2021/01/13 07:46:15;;;;;;;;;;;16.30;57.10;;;;;;5019018;28;19925;-56
2021/01/13 07:48:54;;;;;;;;;;;16.30;57.10;;;;;;5035392;28;19932;-56
2021/01/13 07:51:27;;;;;;;;;;;16.30;57.10;;;;;;5047748;28;19925;-56
2021/01/13 07:54:05;;;;;;;;;;;16.30;57.00;;;;;;5032538;28;19925;-57
2021/01/13 07:56:34;;;;;;;;;;;16.30;57.60;;;;;;5047235;28;19928;-58
2021/01/13 07:59:23;;;;;;;;;;;16.40;57.70;;;;;;5037913;28;20407;-59
2021/01/13 08:02:07;;;;;;;;;;;16.40;57.40;;;;;;5047018;28;19932;-59
2021/01/13 08:05:00;;;;;;;;;;;16.40;57.10;;;;;;5036171;28;20309;-59
2021/01/13 08:07:50;;;;;;;;;;;16.40;57.10;;;;;;5041534;28;21575;-57
2021/01/13 08:10:29;;;;;;;;;;;16.30;57.10;;;;;;5044664;28;19925;-57
2021/01/13 08:13:04;;;;;;;;;;;16.40;57.00;;;;;;5036228;28;19932;-57
2021/01/13 08:15:49;;;;;;;;;;;16.30;56.80;;;;;;5049770;28;19931;-57
2021/01/13 08:18:34;;;;;;;;;;;16.30;56.80;;;;;;5038845;28;19929;-58
2021/01/13 08:24:06;;;;;;;;;;;16.60;58.30;;;;;;5038808;28;19960;-57
2021/01/13 08:26:33;;;;;;;;;;;16.60;57.60;;;;;;5042483;28;19924;-57
2021/01/13 08:29:01;;;;;;;;;;;16.60;57.30;;;;;;5038242;28;19925;-57
2021/01/13 08:31:28;;;;;;;;;;;16.50;57.10;;;;;;5044304;28;20504;-57
2021/01/13 08:34:05;;;;;;;;;;;16.50;57.00;;;;;;5037326;28;19978;-57
2021/01/13 08:36:32;;;;;;;;;;;16.50;56.90;;;;;;5044175;28;19924;-57
2021/01/13 08:39:08;;;;;;;;;;;16.50;56.80;;;;;;5038654;28;20358;-57
2021/01/13 08:41:35;;;;;;;;;;;16.50;56.70;;;;;;5047290;28;19925;-55
2021/01/13 08:44:18;;;;;;;;;;;16.50;56.60;;;;;;5041285;28;20130;-56
2021/01/13 08:46:44;;;;;;;;;;;16.50;56.60;;;;;;5045200;28;19925;-57
2021/01/13 08:49:18;;;;;;;;;;;16.50;56.60;;;;;;5042998;28;19979;-57
2021/01/13 08:52:03;;;;;;;;;;;16.50;56.60;;;;;;5046347;28;20339;-57
2021/01/13 08:54:30;;;;;;;;;;;16.50;56.50;;;;;;5041355;28;20355;-58
2021/01/13 08:56:57;;;;;;;;;;;16.50;56.60;;;;;;5046375;28;19964;-58
2021/01/13 08:59:33;;;;;;;;;;;16.50;56.50;;;;;;5046451;28;19924;-57
2021/01/13 09:02:02;;;;;;;;;;;16.60;56.60;;;;;;5035313;28;20004;-57
2021/01/13 09:04:47;;;;;;;;;;;16.60;56.60;;;;;;5040269;28;19978;-58
2021/01/13 09:07:15;;;;;;;;;;;16.60;56.70;;;;;;5035416;28;19939;-55
2021/01/13 09:09:43;;;;;;;;;;;16.60;56.80;;;;;;5041900;28;21231;-55
2021/01/13 09:12:27;;;;;;;;;;;16.60;56.70;;;;;;5034216;28;19929;-56
2021/01/13 09:15:06;;;;;;;;;;;16.60;56.60;;;;;;5045118;28;20362;-56
2021/01/13 09:17:36;;;;;;;;;;;16.60;56.50;;;;;;5042020;28;20038;-54
2021/01/13 09:20:06;;;;;;;;;;;16.60;56.50;;;;;;5050792;28;19925;-56
2021/01/13 09:22:43;;;;;;;;;;;16.60;56.50;;;;;;5036719;28;20029;-59
2021/01/13 09:25:14;;;;;;;;;;;16.90;57.30;;;;;;5046421;28;19924;-60
2021/01/13 09:27:43;;;;;;;;;;;18.10;54.80;;;;;;5036763;28;19979;-60
2021/01/13 09:30:20;;;;;;;;;;;18.90;53.10;;;;;;5041775;28;19924;-59
2021/01/13 09:32:50;;;;;;;;;;;19.40;52.10;;;;;;5036715;28;20297;-61
2021/01/13 09:35:37;;;;;;;;;;;19.90;51.10;;;;;;5042503;28;19933;-63
2021/01/13 09:38:06;;;;;;;;;;;20.20;50.40;;;;;;5038719;28;20016;-63
2021/01/13 09:40:50;;;;;;;;;;;20.60;49.70;;;;;;5047909;28;19929;-61
2021/01/13 09:43:22;;;;;;;;;;;20.70;49.40;;;;;;5036488;28;19968;-62
2021/01/13 09:45:50;;;;;;;;;;;21.00;48.80;;;;;;5046534;28;19986;-63
2021/01/13 09:48:17;;;;;;;;;;;21.10;48.30;;;;;;5036897;28;19925;-62
2021/01/13 09:50:44;;;;;;;;;;;21.30;48.20;;;;;;5044494;28;20006;-63
2021/01/13 09:53:14;;;;;;;;;;;21.50;47.80;;;;;;5034445;28;20431;-64
2021/01/13 09:55:41;;;;;;;;;;;21.60;47.70;;;;;;5044040;28;19924;-63
2021/01/13 09:58:17;;;;;;;;;;;21.70;47.60;;;;;;5033269;28;19929;-62
2021/01/13 10:00:44;;;;;;;;;;;21.80;47.30;;;;;;5045189;28;20020;-62
2021/01/13 10:03:11;;;;;;;;;;;22.00;46.90;;;;;;5035555;28;19940;-63
2021/01/13 10:05:48;;;;;;;;;;;22.10;46.90;;;;;;5046073;28;19936;-60
2021/01/13 10:08:14;;;;;;;;;;;22.30;46.50;;;;;;5039154;28;19971;-60
2021/01/13 10:10:40;;;;;;;;;;;22.40;46.30;;;;;;5046988;28;19925;-59
2021/01/13 10:13:14;;;;;;;;;;;22.50;46.10;;;;;;5040243;28;19925;-58
2021/01/13 10:15:41;;;;;;;;;;;22.70;45.90;;;;;;5049294;28;19925;-60
2021/01/13 10:18:07;;;;;;;;;;;22.70;45.90;;;;;;5040631;28;19929;-60
2021/01/13 10:20:34;;;;;;;;;;;22.90;45.50;;;;;;5046749;28;20385;-61
2021/01/13 10:23:01;;;;;;;;;;;23.00;45.30;;;;;;5046289;28;19933;-61
2021/01/13 10:25:28;;;;;;;;;;;23.20;45.00;;;;;;5036477;28;20014;-62
2021/01/13 10:27:54;;;;;;;;;;;23.30;44.90;;;;;;5037621;28;20368;-61
2021/01/13 10:30:22;;;;;;;;;;;23.40;44.60;;;;;;5031166;28;20501;-61
2021/01/13 10:32:50;;;;;;;;;;;23.50;44.60;;;;;;5042123;28;19932;-62
2021/01/13 10:35:17;;;;;;;;;;;23.60;44.80;;;;;;5034844;28;19968;-61
2021/01/13 10:37:52;;;;;;;;;;;23.60;44.30;;;;;;5042810;28;19925;-60
2021/01/13 10:40:19;;;;;;;;;;;23.70;44.10;;;;;;5034656;28;19933;-61
2021/01/13 10:42:50;;;;;;;;;;;23.80;44.00;;;;;;5042894;28;20373;-60
2021/01/13 10:45:17;;;;;;;;;;;24.00;43.80;;;;;;5033639;28;20011;-62
2021/01/13 10:47:52;;;;;;;;;;;24.10;43.50;;;;;;5043970;28;19978;-62
2021/01/13 10:50:21;;;;;;;;;;;24.20;43.40;;;;;;5034634;28;19940;-62
2021/01/13 10:52:50;;;;;;;;;;;24.20;43.30;;;;;;5043578;28;19956;-62
2021/01/13 10:55:23;;;;;;;;;;;24.30;43.30;;;;;;5037448;28;19932;-59
2021/01/13 10:57:49;;;;;;;;;;;24.30;43.60;;;;;;5040190;28;19925;-62
2021/01/13 11:00:16;;;;;;;;;;;24.30;43.20;;;;;;5038676;28;19925;-60
2021/01/13 11:03:10;;;;;;;;;;;24.40;43.40;;;;;;5047264;28;19932;-59
2021/01/13 11:05:46;;;;;;;;;;;23.90;43.20;;;;;;5039397;28;19955;-61
2021/01/13 11:08:13;;;;;;;;;;;23.30;44.10;;;;;;5053470;28;19964;-59
2021/01/13 11:10:39;;;;;;;;;;;22.90;44.70;;;;;;5047056;28;19925;-59
2021/01/13 11:13:08;;;;;;;;;;;22.60;45.50;;;;;;5052263;28;20037;-60
2021/01/13 11:15:34;;;;;;;;;;;22.40;45.90;;;;;;5045414;28;19932;-58
2021/01/13 11:18:06;;;;;;;;;;;22.20;46.20;;;;;;5052835;28;19924;-61
2021/01/13 11:20:33;;;;;;;;;;;21.90;46.40;;;;;;5048850;28;19929;-59
2021/01/13 11:23:03;;;;;;;;;;;21.80;46.50;;;;;;5051052;28;19924;-60
2021/01/13 11:25:33;;;;;;;;;;;21.70;46.70;;;;;;5052887;28;19939;-59
2021/01/13 11:28:04;;;;;;;;;;;21.50;46.80;;;;;;5046573;28;19964;-60
2021/01/13 11:30:31;;;;;;;;;;;21.50;47.00;;;;;;5052292;28;19937;-60
2021/01/13 11:32:59;;;;;;;;;;;21.30;47.00;;;;;;5047391;28;19930;-60
2021/01/13 11:35:26;;;;;;;;;;;21.20;47.40;;;;;;5051355;28;19974;-60
2021/01/13 11:38:06;;;;;;;;;;;21.10;47.40;;;;;;5045772;28;19925;-61
2021/01/13 11:40:37;;;;;;;;;;;21.10;47.60;;;;;;5050568;28;19935;-60
2021/01/13 11:43:13;;;;;;;;;;;21.00;47.60;;;;;;5044417;28;19960;-59
2021/01/13 11:46:09;;;;;;;;;;;20.90;47.70;;;;;;5051315;28;19925;-59
2021/01/13 11:48:44;;;;;;;;;;;20.90;47.90;;;;;;5023972;28;20541;-60
2021/01/13 11:51:15;;;;;;;;;;;20.70;48.00;;;;;;5047551;28;19925;-58
2021/01/13 11:53:44;;;;;;;;;;;20.70;48.10;;;;;;5040059;28;19925;-58
2021/01/13 11:56:11;;;;;;;;;;;20.60;48.20;;;;;;5045843;28;19925;-57
2021/01/13 11:58:47;;;;;;;;;;;20.50;48.30;;;;;;5037095;28;19933;-57
2021/01/13 12:01:13;;;;;;;;;;;20.50;48.30;;;;;;5049679;28;20375;-61
2021/01/13 12:03:40;;;;;;;;;;;20.90;47.80;;;;;;5044549;28;19948;-62
2021/01/13 12:06:07;;;;;;;;;;;21.90;46.20;;;;;;5050821;28;20503;-58
2021/01/13 12:08:33;;;;;;;;;;;22.40;45.20;;;;;;5046284;28;19928;-59
2021/01/13 12:11:10;;;;;;;;;;;22.90;44.40;;;;;;5050822;28;19925;-57
2021/01/13 12:13:42;;;;;;;;;;;23.20;43.80;;;;;;5040562;28;20486;-59
2021/01/13 12:16:13;;;;;;;;;;;23.40;43.50;;;;;;5048890;28;19933;-59
2021/01/13 12:18:44;;;;;;;;;;;23.50;43.40;;;;;;5039155;28;19925;-58
2021/01/13 12:21:13;;;;;;;;;;;23.70;43.20;;;;;;5050338;28;19932;-59
2021/01/13 12:23:46;;;;;;;;;;;23.90;43.10;;;;;;5036900;28;19929;-58
2021/01/13 12:26:19;;;;;;;;;;;24.00;42.90;;;;;;5041386;28;19925;-58
2021/01/13 12:28:47;;;;;;;;;;;24.20;42.70;;;;;;5031132;28;20416;-60
2021/01/13 12:31:13;;;;;;;;;;;24.30;42.50;;;;;;5047608;28;19980;-59
2021/01/13 12:33:58;;;;;;;;;;;24.30;42.50;;;;;;5043923;28;19924;-61
2021/01/13 12:36:25;;;;;;;;;;;24.40;42.50;;;;;;5046851;28;20006;-61
2021/01/13 12:38:52;;;;;;;;;;;24.60;42.10;;;;;;5034937;28;19999;-62
2021/01/13 12:41:29;;;;;;;;;;;24.70;42.00;;;;;;5041287;28;19948;-61
2021/01/13 12:44:00;;;;;;;;;;;24.80;41.80;;;;;;5045687;28;19933;-60
2021/01/13 12:46:30;;;;;;;;;;;24.90;41.90;;;;;;5039635;28;19929;-58
2021/01/13 12:49:01;;;;;;;;;;;24.90;41.90;;;;;;5039068;28;19925;-58
2021/01/13 12:51:27;;;;;;;;;;;24.90;41.90;;;;;;5038442;28;19952;-61
2021/01/13 12:53:54;;;;;;;;;;;25.00;41.90;;;;;;5047560;28;19928;-62
2021/01/13 12:56:22;;;;;;;;;;;25.10;41.80;;;;;;5033863;28;19987;-62
2021/01/13 12:58:48;;;;;;;;;;;25.20;41.80;;;;;;5044532;28;19936;-60
2021/01/13 13:01:15;;;;;;;;;;;25.20;41.60;;;;;;5037512;28;19924;-62
2021/01/13 13:03:41;;;;;;;;;;;25.40;41.70;;;;;;5045176;28;20377;-62
2021/01/13 13:06:08;;;;;;;;;;;25.30;41.70;;;;;;5038624;28;19929;-60
2021/01/13 13:08:35;;;;;;;;;;;25.50;41.40;;;;;;5045141;28;20483;-64
2021/01/13 13:11:01;;;;;;;;;;;25.50;41.40;;;;;;5036992;28;19990;-63
2021/01/13 13:13:27;;;;;;;;;;;25.60;41.40;;;;;;5048495;28;19929;-60
2021/01/13 13:15:54;;;;;;;;;;;25.70;41.30;;;;;;5033987;28;19933;-62
2021/01/13 13:18:20;;;;;;;;;;;25.70;41.20;;;;;;5047045;28;19932;-60
2021/01/13 13:20:46;;;;;;;;;;;25.80;41.20;;;;;;5035763;28;19933;-62
2021/01/13 13:23:12;;;;;;;;;;;25.80;41.00;;;;;;5035655;28;19924;-63
2021/01/13 13:25:39;;;;;;;;;;;25.90;41.20;;;;;;5044815;28;19948;-63
2021/01/13 13:28:05;;;;;;;;;;;25.90;41.10;;;;;;5039402;28;19932;-62
2021/01/13 13:30:31;;;;;;;;;;;26.00;40.80;;;;;;5043853;28;19964;-60
2021/01/13 13:32:58;;;;;;;;;;;26.10;40.80;;;;;;5037519;28;19929;-63
2021/01/13 13:35:24;;;;;;;;;;;26.00;40.80;;;;;;5046703;28;19932;-57
2021/01/13 13:37:52;;;;;;;;;;;26.00;40.80;;;;;;5037523;28;19929;-57
2021/01/13 13:40:19;;;;;;;;;;;25.60;39.90;;;;;;5040057;28;19960;-58
2021/01/13 13:42:45;;;;;;;;;;;25.40;39.60;;;;;;5037710;28;19940;-58
2021/01/13 13:45:11;;;;;;;;;;;25.10;39.40;;;;;;5045775;28;19935;-58
2021/01/13 13:47:39;;;;;;;;;;;25.00;39.50;;;;;;5035162;28;19931;-62
2021/01/13 13:50:06;;;;;;;;;;;24.90;39.90;;;;;;5046412;28;19932;-59
2021/01/13 13:52:32;;;;;;;;;;;25.20;40.70;;;;;;5044996;28;19994;-59
2021/01/13 13:54:58;;;;;;;;;;;25.50;40.90;;;;;;5050124;28;19932;-60
2021/01/13 13:57:24;;;;;;;;;;;25.70;41.00;;;;;;5043839;28;21570;-61
2021/01/13 13:59:50;;;;;;;;;;;25.80;40.80;;;;;;5052455;28;19929;-60
2021/01/13 14:02:17;;;;;;;;;;;25.90;40.90;;;;;;5042683;28;19941;-59
2021/01/13 14:04:46;;;;;;;;;;;26.00;40.80;;;;;;5048232;28;19925;-60
2021/01/13 14:07:12;;;;;;;;;;;26.10;40.70;;;;;;5047279;28;19925;-57
2021/01/13 14:09:38;;;;;;;;;;;26.10;40.50;;;;;;5037366;28;19936;-56
2021/01/13 14:12:05;;;;;;;;;;;26.30;40.50;;;;;;5045864;28;20006;-57
2021/01/13 14:14:36;;;;;;;;;;;26.30;40.30;;;;;;5041105;28;19925;-58
2021/01/13 14:17:02;;;;;;;;;;;26.30;40.40;;;;;;5048223;28;19924;-61
2021/01/13 14:19:28;;;;;;;;;;;26.40;40.30;;;;;;5040598;28;19928;-57
2021/01/13 14:21:56;;;;;;;;;;;26.50;40.30;;;;;;5043819;28;19930;-57
2021/01/13 14:24:23;;;;;;;;;;;26.50;40.30;;;;;;5039337;28;20359;-56
2021/01/13 14:26:49;;;;;;;;;;;26.60;40.30;;;;;;5047314;28;19933;-58
2021/01/13 14:29:15;;;;;;;;;;;26.70;40.20;;;;;;5040911;28;20438;-58
2021/01/13 14:31:42;;;;;;;;;;;26.70;40.10;;;;;;5044073;28;19937;-59
2021/01/13 14:34:08;;;;;;;;;;;26.70;40.70;;;;;;5038502;28;20506;-57
2021/01/13 14:36:34;;;;;;;;;;;26.80;40.00;;;;;;5045308;28;20502;-60
2021/01/13 14:39:01;;;;;;;;;;;26.80;40.10;;;;;;5037315;28;20373;-58